sensor_id;sensor_type;location;lat;lon;timestamp;P1;durP1;ratioP1;P2;durP2;ratioP2
78885;SDS011;68269;52.514;5.722;2024-02-26T00:00:22;7.50;;;2.20;;
78885;SDS011;68269;52.514;5.722;2024-02-26T00:02:51;7.60;;;2.35;;
78885;SDS011;68269;52.514;5.722;2024-02-26T00:05:21;8.55;;;1.95;;
78885;SDS011;68269;52.514;5.722;2024-02-26T00:07:50;6.28;;;1.80;;
78885;SDS011;68269;52.514;5.722;2024-02-26T00:10:22;5.05;;;1.70;;
78885;SDS011;68269;52.514;5.722;2024-02-26T00:12:51;7.05;;;1.85;;
78885;SDS011;68269;52.514;5.722;2024-02-26T00:15:20;8.13;;;2.15;;
78885;SDS011;68269;52.514;5.722;2024-02-26T00:17:50;6.40;;;1.83;;
78885;SDS011;68269;52.514;5.722;2024-02-26T00:20:20;7.00;;;2.28;;
78885;SDS011;68269;52.514;5.722;2024-02-26T00:22:49;6.57;;;1.90;;
78885;SDS011;68269;52.514;5.722;2024-02-26T00:25:21;7.30;;;2.08;;
78885;SDS011;68269;52.514;5.722;2024-02-26T00:27:51;7.38;;;1.95;;
78885;SDS011;68269;52.514;5.722;2024-02-26T00:30:20;6.50;;;1.90;;
78885;SDS011;68269;52.514;5.722;2024-02-26T00:32:49;5.22;;;1.70;;
78885;SDS011;68269;52.514;5.722;2024-02-26T00:35:18;7.28;;;1.77;;
78885;SDS011;68269;52.514;5.722;2024-02-26T00:37:48;7.07;;;2.05;;
78885;SDS011;68269;52.514;5.722;2024-02-26T00:40:18;4.53;;;1.60;;
78885;SDS011;68269;52.514;5.722;2024-02-26T00:42:50;8.75;;;2.40;;
78885;SDS011;68269;52.514;5.722;2024-02-26T00:45:19;6.38;;;2.00;;
78885;SDS011;68269;52.514;5.722;2024-02-26T00:47:48;9.00;;;2.40;;
78885;SDS011;68269;52.514;5.722;2024-02-26T00:50:18;6.60;;;1.80;;
78885;SDS011;68269;52.514;5.722;2024-02-26T00:52:47;7.53;;;2.30;;
78885;SDS011;68269;52.514;5.722;2024-02-26T00:55:16;6.43;;;2.15;;
78885;SDS011;68269;52.514;5.722;2024-02-26T00:57:46;7.72;;;2.58;;
78885;SDS011;68269;52.514;5.722;2024-02-26T01:00:18;10.73;;;2.88;;
78885;SDS011;68269;52.514;5.722;2024-02-26T01:02:48;7.75;;;2.65;;
78885;SDS011;68269;52.514;5.722;2024-02-26T01:05:17;8.45;;;2.08;;
78885;SDS011;68269;52.514;5.722;2024-02-26T01:07:46;7.68;;;2.45;;
78885;SDS011;68269;52.514;5.722;2024-02-26T01:10:16;7.05;;;2.03;;
78885;SDS011;68269;52.514;5.722;2024-02-26T01:12:45;8.63;;;2.58;;
78885;SDS011;68269;52.514;5.722;2024-02-26T01:15:14;9.55;;;3.03;;
78885;SDS011;68269;52.514;5.722;2024-02-26T01:17:49;10.98;;;2.58;;
78885;SDS011;68269;52.514;5.722;2024-02-26T01:20:18;6.95;;;2.35;;
78885;SDS011;68269;52.514;5.722;2024-02-26T01:22:48;7.65;;;2.08;;
78885;SDS011;68269;52.514;5.722;2024-02-26T01:25:18;7.15;;;2.88;;
78885;SDS011;68269;52.514;5.722;2024-02-26T01:27:47;8.02;;;2.38;;
78885;SDS011;68269;52.514;5.722;2024-02-26T01:30:19;8.55;;;2.65;;
78885;SDS011;68269;52.514;5.722;2024-02-26T01:32:48;7.63;;;2.67;;
78885;SDS011;68269;52.514;5.722;2024-02-26T01:35:18;6.88;;;1.85;;
78885;SDS011;68269;52.514;5.722;2024-02-26T01:37:47;8.02;;;2.40;;
78885;SDS011;68269;52.514;5.722;2024-02-26T01:40:14;7.78;;;2.17;;
78885;SDS011;68269;52.514;5.722;2024-02-26T01:42:45;7.47;;;2.83;;
78885;SDS011;68269;52.514;5.722;2024-02-26T01:45:16;8.30;;;3.22;;
78885;SDS011;68269;52.514;5.722;2024-02-26T01:47:50;7.82;;;2.17;;
78885;SDS011;68269;52.514;5.722;2024-02-26T01:50:20;10.70;;;3.22;;
78885;SDS011;68269;52.514;5.722;2024-02-26T01:52:50;10.95;;;2.90;;
78885;SDS011;68269;52.514;5.722;2024-02-26T01:55:22;9.82;;;3.03;;
78885;SDS011;68269;52.514;5.722;2024-02-26T01:57:53;9.15;;;2.47;;
78885;SDS011;68269;52.514;5.722;2024-02-26T02:00:25;10.13;;;3.10;;
78885;SDS011;68269;52.514;5.722;2024-02-26T02:02:55;8.45;;;2.85;;
78885;SDS011;68269;52.514;5.722;2024-02-26T02:05:24;9.07;;;3.10;;
78885;SDS011;68269;52.514;5.722;2024-02-26T02:07:55;11.05;;;2.80;;
78885;SDS011;68269;52.514;5.722;2024-02-26T02:10:25;7.30;;;2.33;;
78885;SDS011;68269;52.514;5.722;2024-02-26T02:12:55;7.65;;;2.20;;
78885;SDS011;68269;52.514;5.722;2024-02-26T02:15:27;8.32;;;2.53;;
78885;SDS011;68269;52.514;5.722;2024-02-26T02:17:56;8.75;;;2.67;;
78885;SDS011;68269;52.514;5.722;2024-02-26T02:20:31;8.85;;;2.97;;
78885;SDS011;68269;52.514;5.722;2024-02-26T02:23:01;8.20;;;2.95;;
78885;SDS011;68269;52.514;5.722;2024-02-26T02:25:31;7.70;;;2.38;;
78885;SDS011;68269;52.514;5.722;2024-02-26T02:28:00;8.88;;;2.85;;
78885;SDS011;68269;52.514;5.722;2024-02-26T02:30:30;10.57;;;2.63;;
78885;SDS011;68269;52.514;5.722;2024-02-26T02:33:01;10.75;;;3.03;;
78885;SDS011;68269;52.514;5.722;2024-02-26T02:35:33;8.80;;;2.60;;
78885;SDS011;68269;52.514;5.722;2024-02-26T02:38:02;7.35;;;2.30;;
78885;SDS011;68269;52.514;5.722;2024-02-26T02:40:32;6.30;;;1.65;;
78885;SDS011;68269;52.514;5.722;2024-02-26T02:43:02;7.82;;;2.60;;
78885;SDS011;68269;52.514;5.722;2024-02-26T02:45:32;10.90;;;2.75;;
78885;SDS011;68269;52.514;5.722;2024-02-26T02:48:01;7.88;;;2.30;;
78885;SDS011;68269;52.514;5.722;2024-02-26T02:50:33;8.43;;;2.80;;
78885;SDS011;68269;52.514;5.722;2024-02-26T02:53:02;7.22;;;2.30;;
78885;SDS011;68269;52.514;5.722;2024-02-26T02:55:32;9.27;;;3.03;;
78885;SDS011;68269;52.514;5.722;2024-02-26T02:58:01;7.15;;;2.00;;
78885;SDS011;68269;52.514;5.722;2024-02-26T03:00:30;5.80;;;1.88;;
78885;SDS011;68269;52.514;5.722;2024-02-26T03:02:59;8.38;;;2.83;;
78885;SDS011;68269;52.514;5.722;2024-02-26T03:05:29;6.95;;;2.28;;
78885;SDS011;68269;52.514;5.722;2024-02-26T03:08:01;9.23;;;2.25;;
78885;SDS011;68269;52.514;5.722;2024-02-26T03:10:31;9.63;;;2.75;;
78885;SDS011;68269;52.514;5.722;2024-02-26T03:13:00;9.45;;;2.97;;
78885;SDS011;68269;52.514;5.722;2024-02-26T03:15:29;8.70;;;2.33;;
78885;SDS011;68269;52.514;5.722;2024-02-26T03:17:59;9.90;;;2.55;;
78885;SDS011;68269;52.514;5.722;2024-02-26T03:20:28;8.48;;;2.65;;
78885;SDS011;68269;52.514;5.722;2024-02-26T03:23:00;7.95;;;1.98;;
78885;SDS011;68269;52.514;5.722;2024-02-26T03:25:29;9.00;;;2.80;;
78885;SDS011;68269;52.514;5.722;2024-02-26T03:27:58;9.52;;;3.13;;
78885;SDS011;68269;52.514;5.722;2024-02-26T03:30:28;11.23;;;3.03;;
78885;SDS011;68269;52.514;5.722;2024-02-26T03:32:57;8.77;;;3.38;;
78885;SDS011;68269;52.514;5.722;2024-02-26T03:35:26;11.23;;;2.80;;
78885;SDS011;68269;52.514;5.722;2024-02-26T03:37:55;10.25;;;2.97;;
78885;SDS011;68269;52.514;5.722;2024-02-26T03:40:27;10.18;;;2.97;;
78885;SDS011;68269;52.514;5.722;2024-02-26T03:42:57;9.13;;;2.65;;
78885;SDS011;68269;52.514;5.722;2024-02-26T03:45:26;8.27;;;2.00;;
78885;SDS011;68269;52.514;5.722;2024-02-26T03:47:55;9.00;;;2.60;;
78885;SDS011;68269;52.514;5.722;2024-02-26T03:50:24;12.80;;;2.47;;
78885;SDS011;68269;52.514;5.722;2024-02-26T03:52:54;9.20;;;2.55;;
78885;SDS011;68269;52.514;5.722;2024-02-26T03:55:23;11.48;;;2.90;;
78885;SDS011;68269;52.514;5.722;2024-02-26T03:57:55;11.60;;;3.40;;
78885;SDS011;68269;52.514;5.722;2024-02-26T04:00:25;9.43;;;3.08;;
78885;SDS011;68269;52.514;5.722;2024-02-26T04:02:55;12.63;;;3.20;;
78885;SDS011;68269;52.514;5.722;2024-02-26T04:05:25;11.18;;;2.42;;
78885;SDS011;68269;52.514;5.722;2024-02-26T04:07:54;8.88;;;2.90;;
78885;SDS011;68269;52.514;5.722;2024-02-26T04:10:23;9.65;;;3.28;;
78885;SDS011;68269;52.514;5.722;2024-02-26T04:12:55;10.15;;;3.75;;
78885;SDS011;68269;52.514;5.722;2024-02-26T04:15:25;9.90;;;2.50;;
78885;SDS011;68269;52.514;5.722;2024-02-26T04:17:54;10.77;;;3.00;;
78885;SDS011;68269;52.514;5.722;2024-02-26T04:20:23;12.25;;;3.78;;
78885;SDS011;68269;52.514;5.722;2024-02-26T04:22:53;13.13;;;4.68;;
78885;SDS011;68269;52.514;5.722;2024-02-26T04:25:22;11.75;;;2.80;;
78885;SDS011;68269;52.514;5.722;2024-02-26T04:27:51;11.57;;;2.78;;
78885;SDS011;68269;52.514;5.722;2024-02-26T04:30:23;10.60;;;3.47;;
78885;SDS011;68269;52.514;5.722;2024-02-26T04:32:53;14.25;;;4.28;;
78885;SDS011;68269;52.514;5.722;2024-02-26T04:35:22;10.88;;;3.50;;
78885;SDS011;68269;52.514;5.722;2024-02-26T04:37:51;12.27;;;4.22;;
78885;SDS011;68269;52.514;5.722;2024-02-26T04:40:20;13.98;;;4.38;;
78885;SDS011;68269;52.514;5.722;2024-02-26T04:42:50;13.52;;;4.32;;
78885;SDS011;68269;52.514;5.722;2024-02-26T04:45:19;11.65;;;3.60;;
78885;SDS011;68269;52.514;5.722;2024-02-26T04:47:51;9.18;;;2.70;;
78885;SDS011;68269;52.514;5.722;2024-02-26T04:50:21;11.98;;;3.78;;
78885;SDS011;68269;52.514;5.722;2024-02-26T04:52:50;13.18;;;3.67;;
78885;SDS011;68269;52.514;5.722;2024-02-26T04:55:19;12.27;;;4.38;;
78885;SDS011;68269;52.514;5.722;2024-02-26T04:57:48;15.30;;;3.85;;
78885;SDS011;68269;52.514;5.722;2024-02-26T05:00:18;13.10;;;3.60;;
78885;SDS011;68269;52.514;5.722;2024-02-26T05:02:47;12.57;;;4.05;;
78885;SDS011;68269;52.514;5.722;2024-02-26T05:05:19;11.52;;;2.55;;
78885;SDS011;68269;52.514;5.722;2024-02-26T05:07:49;12.70;;;4.03;;
78885;SDS011;68269;52.514;5.722;2024-02-26T05:10:18;16.27;;;4.60;;
78885;SDS011;68269;52.514;5.722;2024-02-26T05:12:47;12.35;;;4.03;;
78885;SDS011;68269;52.514;5.722;2024-02-26T05:15:16;10.73;;;3.45;;
78885;SDS011;68269;52.514;5.722;2024-02-26T05:17:46;14.00;;;4.70;;
78885;SDS011;68269;52.514;5.722;2024-02-26T05:20:15;11.65;;;4.20;;
78885;SDS011;68269;52.514;5.722;2024-02-26T05:22:47;14.23;;;4.47;;
78885;SDS011;68269;52.514;5.722;2024-02-26T05:25:16;13.50;;;3.60;;
78885;SDS011;68269;52.514;5.722;2024-02-26T05:27:46;13.55;;;3.70;;
78885;SDS011;68269;52.514;5.722;2024-02-26T05:30:15;12.05;;;4.63;;
78885;SDS011;68269;52.514;5.722;2024-02-26T05:32:45;12.70;;;3.97;;
78885;SDS011;68269;52.514;5.722;2024-02-26T05:35:14;10.80;;;4.10;;
78885;SDS011;68269;52.514;5.722;2024-02-26T05:37:44;11.70;;;3.92;;
78885;SDS011;68269;52.514;5.722;2024-02-26T05:40:16;13.40;;;4.30;;
78885;SDS011;68269;52.514;5.722;2024-02-26T05:42:45;12.00;;;2.90;;
78885;SDS011;68269;52.514;5.722;2024-02-26T05:45:15;10.93;;;3.00;;
78885;SDS011;68269;52.514;5.722;2024-02-26T05:47:44;10.45;;;2.80;;
78885;SDS011;68269;52.514;5.722;2024-02-26T05:50:15;12.57;;;3.72;;
78885;SDS011;68269;52.514;5.722;2024-02-26T05:52:47;12.57;;;4.22;;
78885;SDS011;68269;52.514;5.722;2024-02-26T05:55:16;10.25;;;3.50;;
78885;SDS011;68269;52.514;5.722;2024-02-26T05:57:46;11.52;;;3.38;;
78885;SDS011;68269;52.514;5.722;2024-02-26T06:00:15;7.88;;;2.10;;
78885;SDS011;68269;52.514;5.722;2024-02-26T06:02:45;7.65;;;2.38;;
78885;SDS011;68269;52.514;5.722;2024-02-26T06:05:14;11.30;;;2.85;;
78885;SDS011;68269;52.514;5.722;2024-02-26T06:07:43;9.15;;;2.50;;
78885;SDS011;68269;52.514;5.722;2024-02-26T06:10:16;10.60;;;3.20;;
78885;SDS011;68269;52.514;5.722;2024-02-26T06:12:47;9.93;;;3.30;;
78885;SDS011;68269;52.514;5.722;2024-02-26T06:15:16;11.18;;;3.33;;
78885;SDS011;68269;52.514;5.722;2024-02-26T06:17:46;10.40;;;3.60;;
78885;SDS011;68269;52.514;5.722;2024-02-26T06:20:15;10.18;;;2.50;;
78885;SDS011;68269;52.514;5.722;2024-02-26T06:22:47;9.23;;;2.40;;
78885;SDS011;68269;52.514;5.722;2024-02-26T06:25:16;11.80;;;2.88;;
78885;SDS011;68269;52.514;5.722;2024-02-26T06:27:46;6.55;;;1.80;;
78885;SDS011;68269;52.514;5.722;2024-02-26T06:30:15;8.63;;;2.50;;
78885;SDS011;68269;52.514;5.722;2024-02-26T06:32:44;7.75;;;2.58;;
78885;SDS011;68269;52.514;5.722;2024-02-26T06:35:14;9.52;;;2.45;;
78885;SDS011;68269;52.514;5.722;2024-02-26T06:37:43;6.40;;;2.20;;
78885;SDS011;68269;52.514;5.722;2024-02-26T06:40:15;11.15;;;2.88;;
78885;SDS011;68269;52.514;5.722;2024-02-26T06:42:44;8.98;;;2.42;;
78885;SDS011;68269;52.514;5.722;2024-02-26T06:45:14;8.15;;;2.25;;
78885;SDS011;68269;52.514;5.722;2024-02-26T06:47:44;9.18;;;2.00;;
78885;SDS011;68269;52.514;5.722;2024-02-26T06:50:13;11.52;;;2.78;;
78885;SDS011;68269;52.514;5.722;2024-02-26T06:52:44;7.95;;;2.10;;
78885;SDS011;68269;52.514;5.722;2024-02-26T06:55:16;10.43;;;2.75;;
78885;SDS011;68269;52.514;5.722;2024-02-26T06:57:45;7.18;;;2.00;;
78885;SDS011;68269;52.514;5.722;2024-02-26T07:00:15;8.50;;;2.03;;
78885;SDS011;68269;52.514;5.722;2024-02-26T07:02:45;5.53;;;1.52;;
78885;SDS011;68269;52.514;5.722;2024-02-26T07:05:14;7.78;;;1.67;;
78885;SDS011;68269;52.514;5.722;2024-02-26T07:07:44;6.35;;;1.73;;
78885;SDS011;68269;52.514;5.722;2024-02-26T07:10:16;10.07;;;2.97;;
78885;SDS011;68269;52.514;5.722;2024-02-26T07:12:45;8.38;;;2.55;;
78885;SDS011;68269;52.514;5.722;2024-02-26T07:15:15;10.93;;;2.33;;
78885;SDS011;68269;52.514;5.722;2024-02-26T07:17:44;8.27;;;1.90;;
78885;SDS011;68269;52.514;5.722;2024-02-26T07:20:15;6.60;;;1.80;;
78885;SDS011;68269;52.514;5.722;2024-02-26T07:22:45;6.90;;;1.98;;
78885;SDS011;68269;52.514;5.722;2024-02-26T07:25:17;6.25;;;1.75;;
78885;SDS011;68269;52.514;5.722;2024-02-26T07:27:46;5.93;;;1.65;;
78885;SDS011;68269;52.514;5.722;2024-02-26T07:30:16;6.97;;;1.52;;
78885;SDS011;68269;52.514;5.722;2024-02-26T07:32:45;8.48;;;2.83;;
78885;SDS011;68269;52.514;5.722;2024-02-26T07:35:14;4.72;;;1.38;;
78885;SDS011;68269;52.514;5.722;2024-02-26T07:37:44;4.20;;;0.85;;
78885;SDS011;68269;52.514;5.722;2024-02-26T07:40:19;5.35;;;1.50;;
78885;SDS011;68269;52.514;5.722;2024-02-26T07:42:49;5.03;;;1.60;;
78885;SDS011;68269;52.514;5.722;2024-02-26T07:45:18;3.90;;;0.93;;
78885;SDS011;68269;52.514;5.722;2024-02-26T07:47:48;5.50;;;1.30;;
78885;SDS011;68269;52.514;5.722;2024-02-26T07:50:17;3.65;;;1.10;;
78885;SDS011;68269;52.514;5.722;2024-02-26T07:52:47;5.78;;;1.35;;
78885;SDS011;68269;52.514;5.722;2024-02-26T07:55:17;5.50;;;1.15;;
78885;SDS011;68269;52.514;5.722;2024-02-26T07:57:48;3.63;;;1.17;;
78885;SDS011;68269;52.514;5.722;2024-02-26T08:00:18;3.40;;;0.90;;
78885;SDS011;68269;52.514;5.722;2024-02-26T08:02:48;3.28;;;0.80;;
78885;SDS011;68269;52.514;5.722;2024-02-26T08:05:17;2.85;;;0.80;;
78885;SDS011;68269;52.514;5.722;2024-02-26T08:07:47;5.78;;;1.52;;
78885;SDS011;68269;52.514;5.722;2024-02-26T08:10:16;5.35;;;1.35;;
78885;SDS011;68269;52.514;5.722;2024-02-26T08:12:48;5.57;;;1.25;;
78885;SDS011;68269;52.514;5.722;2024-02-26T08:15:17;6.38;;;1.10;;
78885;SDS011;68269;52.514;5.722;2024-02-26T08:17:46;4.38;;;1.02;;
78885;SDS011;68269;52.514;5.722;2024-02-26T08:20:16;3.60;;;1.02;;
78885;SDS011;68269;52.514;5.722;2024-02-26T08:22:45;2.53;;;1.00;;
78885;SDS011;68269;52.514;5.722;2024-02-26T08:25:14;3.03;;;0.75;;
78885;SDS011;68269;52.514;5.722;2024-02-26T08:27:47;2.65;;;0.73;;
78885;SDS011;68269;52.514;5.722;2024-02-26T08:30:16;5.15;;;1.13;;
78885;SDS011;68269;52.514;5.722;2024-02-26T08:32:45;8.65;;;1.10;;
78885;SDS011;68269;52.514;5.722;2024-02-26T08:35:16;2.78;;;0.80;;
78885;SDS011;68269;52.514;5.722;2024-02-26T08:37:45;2.38;;;0.65;;
78885;SDS011;68269;52.514;5.722;2024-02-26T08:40:15;4.70;;;1.30;;
78885;SDS011;68269;52.514;5.722;2024-02-26T08:42:47;4.43;;;0.90;;
78885;SDS011;68269;52.514;5.722;2024-02-26T08:45:17;2.58;;;0.95;;
78885;SDS011;68269;52.514;5.722;2024-02-26T08:47:46;3.30;;;0.63;;
78885;SDS011;68269;52.514;5.722;2024-02-26T08:50:15;4.75;;;1.30;;
78885;SDS011;68269;52.514;5.722;2024-02-26T08:52:45;2.80;;;0.93;;
78885;SDS011;68269;52.514;5.722;2024-02-26T08:55:16;2.40;;;0.68;;
78885;SDS011;68269;52.514;5.722;2024-02-26T08:57:48;2.92;;;0.80;;
78885;SDS011;68269;52.514;5.722;2024-02-26T09:00:18;5.78;;;1.35;;
78885;SDS011;68269;52.514;5.722;2024-02-26T09:02:48;4.93;;;1.33;;
78885;SDS011;68269;52.514;5.722;2024-02-26T09:05:17;3.40;;;1.17;;
78885;SDS011;68269;52.514;5.722;2024-02-26T09:07:46;3.70;;;0.98;;
78885;SDS011;68269;52.514;5.722;2024-02-26T09:10:17;3.88;;;1.00;;
78885;SDS011;68269;52.514;5.722;2024-02-26T09:12:49;5.18;;;1.40;;
78885;SDS011;68269;52.514;5.722;2024-02-26T09:15:18;4.95;;;0.77;;
78885;SDS011;68269;52.514;5.722;2024-02-26T09:17:48;6.32;;;1.42;;
78885;SDS011;68269;52.514;5.722;2024-02-26T09:20:17;4.57;;;1.05;;
78885;SDS011;68269;52.514;5.722;2024-02-26T09:22:49;4.43;;;1.17;;
78885;SDS011;68269;52.514;5.722;2024-02-26T09:25:19;5.90;;;1.63;;
78885;SDS011;68269;52.514;5.722;2024-02-26T09:27:51;6.22;;;1.63;;
78885;SDS011;68269;52.514;5.722;2024-02-26T09:30:21;5.45;;;1.00;;
78885;SDS011;68269;52.514;5.722;2024-02-26T09:32:50;4.47;;;1.05;;
78885;SDS011;68269;52.514;5.722;2024-02-26T09:35:19;5.07;;;1.45;;
78885;SDS011;68269;52.514;5.722;2024-02-26T09:37:49;3.30;;;0.90;;
78885;SDS011;68269;52.514;5.722;2024-02-26T09:40:19;4.45;;;1.30;;
78885;SDS011;68269;52.514;5.722;2024-02-26T09:42:52;4.47;;;1.25;;
78885;SDS011;68269;52.514;5.722;2024-02-26T09:45:26;5.07;;;1.35;;
78885;SDS011;68269;52.514;5.722;2024-02-26T09:47:57;5.25;;;1.30;;
78885;SDS011;68269;52.514;5.722;2024-02-26T09:50:26;4.80;;;1.25;;
78885;SDS011;68269;52.514;5.722;2024-02-26T09:52:55;4.60;;;0.85;;
78885;SDS011;68269;52.514;5.722;2024-02-26T09:55:28;4.43;;;1.05;;
78885;SDS011;68269;52.514;5.722;2024-02-26T09:58:00;4.70;;;1.55;;
78885;SDS011;68269;52.514;5.722;2024-02-26T10:00:30;4.82;;;0.85;;
78885;SDS011;68269;52.514;5.722;2024-02-26T10:03:01;4.30;;;0.90;;
78885;SDS011;68269;52.514;5.722;2024-02-26T10:05:33;5.30;;;1.15;;
78885;SDS011;68269;52.514;5.722;2024-02-26T10:08:02;2.92;;;0.88;;
78885;SDS011;68269;52.514;5.722;2024-02-26T10:10:33;4.78;;;1.38;;
78885;SDS011;68269;52.514;5.722;2024-02-26T10:13:06;4.72;;;1.42;;
78885;SDS011;68269;52.514;5.722;2024-02-26T10:15:37;5.57;;;1.23;;
78885;SDS011;68269;52.514;5.722;2024-02-26T10:18:07;5.95;;;1.67;;
78885;SDS011;68269;52.514;5.722;2024-02-26T10:20:36;6.15;;;1.88;;
78885;SDS011;68269;52.514;5.722;2024-02-26T10:23:05;8.57;;;1.40;;
78885;SDS011;68269;52.514;5.722;2024-02-26T10:25:35;4.38;;;1.15;;
78885;SDS011;68269;52.514;5.722;2024-02-26T10:28:07;5.40;;;1.50;;
78885;SDS011;68269;52.514;5.722;2024-02-26T10:30:38;5.20;;;1.50;;
78885;SDS011;68269;52.514;5.722;2024-02-26T10:33:08;5.13;;;1.60;;
78885;SDS011;68269;52.514;5.722;2024-02-26T10:35:39;3.75;;;1.00;;
78885;SDS011;68269;52.514;5.722;2024-02-26T10:38:08;5.97;;;1.25;;
78885;SDS011;68269;52.514;5.722;2024-02-26T10:40:38;4.10;;;1.35;;
78885;SDS011;68269;52.514;5.722;2024-02-26T10:43:10;4.03;;;0.95;;
78885;SDS011;68269;52.514;5.722;2024-02-26T10:48:11;4.63;;;1.20;;
78885;SDS011;68269;52.514;5.722;2024-02-26T10:50:42;5.88;;;1.10;;
78885;SDS011;68269;52.514;5.722;2024-02-26T10:53:13;4.25;;;0.85;;
78885;SDS011;68269;52.514;5.722;2024-02-26T10:55:46;6.30;;;1.40;;
78885;SDS011;68269;52.514;5.722;2024-02-26T10:58:20;4.00;;;1.20;;
78885;SDS011;68269;52.514;5.722;2024-02-26T11:00:51;4.63;;;1.52;;
78885;SDS011;68269;52.514;5.722;2024-02-26T11:03:22;3.17;;;0.85;;
78885;SDS011;68269;52.514;5.722;2024-02-26T11:05:53;4.50;;;1.25;;
78885;SDS011;68269;52.514;5.722;2024-02-26T11:08:22;4.78;;;1.45;;
78885;SDS011;68269;52.514;5.722;2024-02-26T11:10:53;4.50;;;1.20;;
78885;SDS011;68269;52.514;5.722;2024-02-26T11:13:26;3.92;;;0.98;;
78885;SDS011;68269;52.514;5.722;2024-02-26T11:15:58;4.68;;;1.05;;
78885;SDS011;68269;52.514;5.722;2024-02-26T11:18:29;3.47;;;0.70;;
78885;SDS011;68269;52.514;5.722;2024-02-26T11:20:59;2.72;;;0.98;;
78885;SDS011;68269;52.514;5.722;2024-02-26T11:23:30;3.50;;;0.80;;
78885;SDS011;68269;52.514;5.722;2024-02-26T11:26:02;3.33;;;0.80;;
78885;SDS011;68269;52.514;5.722;2024-02-26T11:28:36;6.95;;;1.48;;
78885;SDS011;68269;52.514;5.722;2024-02-26T11:31:06;4.55;;;1.05;;
78885;SDS011;68269;52.514;5.722;2024-02-26T11:33:36;3.80;;;1.02;;
78885;SDS011;68269;52.514;5.722;2024-02-26T11:36:07;2.50;;;0.60;;
78885;SDS011;68269;52.514;5.722;2024-02-26T11:38:38;2.08;;;0.70;;
78885;SDS011;68269;52.514;5.722;2024-02-26T11:41:08;3.42;;;0.88;;
78885;SDS011;68269;52.514;5.722;2024-02-26T11:43:53;5.57;;;1.15;;
78885;SDS011;68269;52.514;5.722;2024-02-26T11:46:28;4.05;;;1.20;;
78885;SDS011;68269;52.514;5.722;2024-02-26T11:48:59;3.20;;;0.90;;
78885;SDS011;68269;52.514;5.722;2024-02-26T11:51:32;3.20;;;0.63;;
78885;SDS011;68269;52.514;5.722;2024-02-26T11:54:03;2.92;;;0.90;;
78885;SDS011;68269;52.514;5.722;2024-02-26T11:56:33;3.75;;;0.90;;
78885;SDS011;68269;52.514;5.722;2024-02-26T11:59:10;3.85;;;0.93;;
78885;SDS011;68269;52.514;5.722;2024-02-26T12:01:40;2.17;;;0.82;;
78885;SDS011;68269;52.514;5.722;2024-02-26T12:04:14;3.67;;;0.70;;
78885;SDS011;68269;52.514;5.722;2024-02-26T12:06:46;4.70;;;1.27;;
78885;SDS011;68269;52.514;5.722;2024-02-26T12:09:31;5.10;;;1.33;;
78885;SDS011;68269;52.514;5.722;2024-02-26T12:12:02;4.72;;;0.88;;
78885;SDS011;68269;52.514;5.722;2024-02-26T12:14:40;4.75;;;1.10;;
78885;SDS011;68269;52.514;5.722;2024-02-26T12:17:19;3.38;;;0.95;;
78885;SDS011;68269;52.514;5.722;2024-02-26T12:19:49;4.55;;;0.90;;
78885;SDS011;68269;52.514;5.722;2024-02-26T12:22:19;2.40;;;0.70;;
78885;SDS011;68269;52.514;5.722;2024-02-26T12:24:57;3.97;;;1.15;;
78885;SDS011;68269;52.514;5.722;2024-02-26T12:27:28;6.00;;;1.58;;
78885;SDS011;68269;52.514;5.722;2024-02-26T12:30:01;1.70;;;0.55;;
78885;SDS011;68269;52.514;5.722;2024-02-26T12:32:32;2.03;;;0.68;;
78885;SDS011;68269;52.514;5.722;2024-02-26T12:35:03;4.43;;;1.25;;
78885;SDS011;68269;52.514;5.722;2024-02-26T12:37:34;2.50;;;0.80;;
78885;SDS011;68269;52.514;5.722;2024-02-26T12:40:05;5.38;;;0.88;;
78885;SDS011;68269;52.514;5.722;2024-02-26T12:42:37;4.50;;;0.77;;
78885;SDS011;68269;52.514;5.722;2024-02-26T12:45:11;3.33;;;0.90;;
78885;SDS011;68269;52.514;5.722;2024-02-26T12:47:42;2.70;;;0.82;;
78885;SDS011;68269;52.514;5.722;2024-02-26T12:50:12;2.33;;;0.82;;
78885;SDS011;68269;52.514;5.722;2024-02-26T12:52:42;3.20;;;0.43;;
78885;SDS011;68269;52.514;5.722;2024-02-26T12:55:13;3.65;;;0.90;;
78885;SDS011;68269;52.514;5.722;2024-02-26T12:57:44;3.05;;;0.50;;
78885;SDS011;68269;52.514;5.722;2024-02-26T13:00:19;10.63;;;1.15;;
78885;SDS011;68269;52.514;5.722;2024-02-26T13:02:50;3.75;;;0.90;;
78885;SDS011;68269;52.514;5.722;2024-02-26T13:05:21;3.10;;;0.75;;
78885;SDS011;68269;52.514;5.722;2024-02-26T13:07:51;3.60;;;0.90;;
78885;SDS011;68269;52.514;5.722;2024-02-26T13:10:20;5.25;;;1.10;;
78885;SDS011;68269;52.514;5.722;2024-02-26T13:12:50;4.05;;;0.85;;
78885;SDS011;68269;52.514;5.722;2024-02-26T13:15:23;4.10;;;1.38;;
78885;SDS011;68269;52.514;5.722;2024-02-26T13:17:52;3.83;;;0.93;;
78885;SDS011;68269;52.514;5.722;2024-02-26T13:20:25;4.07;;;1.10;;
78885;SDS011;68269;52.514;5.722;2024-02-26T13:23:01;4.10;;;1.05;;
78885;SDS011;68269;52.514;5.722;2024-02-26T13:25:31;3.88;;;1.00;;
78885;SDS011;68269;52.514;5.722;2024-02-26T13:28:06;3.72;;;0.73;;
78885;SDS011;68269;52.514;5.722;2024-02-26T13:30:39;3.50;;;1.08;;
78885;SDS011;68269;52.514;5.722;2024-02-26T13:33:09;4.47;;;0.75;;
78885;SDS011;68269;52.514;5.722;2024-02-26T13:35:39;1.98;;;0.50;;
78885;SDS011;68269;52.514;5.722;2024-02-26T13:38:08;4.13;;;0.80;;
78885;SDS011;68269;52.514;5.722;2024-02-26T13:40:40;3.38;;;0.60;;
78885;SDS011;68269;52.514;5.722;2024-02-26T13:43:09;3.83;;;0.60;;
78885;SDS011;68269;52.514;5.722;2024-02-26T13:45:41;3.20;;;0.80;;
78885;SDS011;68269;52.514;5.722;2024-02-26T13:48:12;3.13;;;0.80;;
78885;SDS011;68269;52.514;5.722;2024-02-26T13:50:44;7.40;;;0.68;;
78885;SDS011;68269;52.514;5.722;2024-02-26T13:53:14;3.92;;;0.77;;
78885;SDS011;68269;52.514;5.722;2024-02-26T13:55:44;2.10;;;0.50;;
78885;SDS011;68269;52.514;5.722;2024-02-26T13:58:13;3.20;;;0.77;;
78885;SDS011;68269;52.514;5.722;2024-02-26T14:00:51;2.25;;;0.50;;
78885;SDS011;68269;52.514;5.722;2024-02-26T14:03:20;2.10;;;0.52;;
78885;SDS011;68269;52.514;5.722;2024-02-26T14:05:49;3.25;;;0.70;;
78885;SDS011;68269;52.514;5.722;2024-02-26T14:08:19;3.75;;;0.95;;
78885;SDS011;68269;52.514;5.722;2024-02-26T14:10:49;3.08;;;0.82;;
78885;SDS011;68269;52.514;5.722;2024-02-26T14:13:18;4.50;;;0.70;;
78885;SDS011;68269;52.514;5.722;2024-02-26T14:15:47;2.15;;;0.60;;
78885;SDS011;68269;52.514;5.722;2024-02-26T14:18:19;4.20;;;0.95;;
78885;SDS011;68269;52.514;5.722;2024-02-26T14:20:49;3.10;;;0.65;;
78885;SDS011;68269;52.514;5.722;2024-02-26T14:23:18;6.38;;;1.17;;
78885;SDS011;68269;52.514;5.722;2024-02-26T14:25:47;4.50;;;1.15;;
78885;SDS011;68269;52.514;5.722;2024-02-26T14:28:17;4.53;;;0.95;;
78885;SDS011;68269;52.514;5.722;2024-02-26T14:30:46;4.43;;;1.30;;
78885;SDS011;68269;52.514;5.722;2024-02-26T14:33:18;4.28;;;0.82;;
78885;SDS011;68269;52.514;5.722;2024-02-26T14:35:48;3.58;;;0.70;;
78885;SDS011;68269;52.514;5.722;2024-02-26T14:38:17;4.97;;;1.23;;
78885;SDS011;68269;52.514;5.722;2024-02-26T14:40:46;6.25;;;1.30;;
78885;SDS011;68269;52.514;5.722;2024-02-26T14:43:16;2.92;;;0.75;;
78885;SDS011;68269;52.514;5.722;2024-02-26T14:45:45;6.95;;;1.75;;
78885;SDS011;68269;52.514;5.722;2024-02-26T14:48:14;4.32;;;1.08;;
78885;SDS011;68269;52.514;5.722;2024-02-26T14:50:46;5.43;;;1.55;;
78885;SDS011;68269;52.514;5.722;2024-02-26T14:53:16;7.28;;;1.23;;
78885;SDS011;68269;52.514;5.722;2024-02-26T14:55:46;20.55;;;4.07;;
78885;SDS011;68269;52.514;5.722;2024-02-26T14:58:15;7.82;;;1.38;;
78885;SDS011;68269;52.514;5.722;2024-02-26T15:00:45;7.38;;;1.95;;
78885;SDS011;68269;52.514;5.722;2024-02-26T15:03:17;31.77;;;8.98;;
78885;SDS011;68269;52.514;5.722;2024-02-26T15:05:47;7.57;;;2.38;;